Time;durP1;ratioP1;P1;durP2;ratioP2;P2;SDS_P1;SDS_P2;PMS_P1;PMS_P2;Temp;Humidity;BMP_temperature;BMP_pressure;BME280_temperature;BME280_humidity;BME280_pressure;Samples;Min_cycle;Max_cycle;Signal;HPM_P1;HPM_P2
2022/02/17 00:01:49;;;;;;;3.80;2.50;;;;;;;7.91;81.36;97067.25;105092;1270;61295;-75
2022/02/17 00:04:15;;;;;;;5.30;2.50;;;;;;;7.89;81.59;97041.06;105154;1270;61254;-76
2022/02/17 00:06:42;;;;;;;2.80;2.00;;;;;;;7.86;81.55;97028.42;105178;1270;61288;-73
2022/02/17 00:09:08;;;;;;;3.30;1.70;;;;;;;7.84;81.75;97030.95;105152;1270;61243;-75
2022/02/17 00:11:35;;;;;;;2.00;1.50;;;;;;;7.86;82.07;97053.24;105151;1270;61234;-76
2022/02/17 00:14:01;;;;;;;3.00;1.80;;;;;;;7.87;82.06;97040.94;104980;1270;61273;-74
2022/02/17 00:16:28;;;;;;;2.90;1.90;;;;;;;7.87;82.38;97029.21;105173;1270;61315;-75
2022/02/17 00:18:55;;;;;;;2.60;1.60;;;;;;;7.89;82.33;97018.45;105148;1270;76174;-74
2022/02/17 00:21:22;;;;;;;2.00;1.60;;;;;;;7.89;82.28;97022.13;105172;1270;69176;-76
2022/02/17 00:23:48;;;;;;;3.30;1.90;;;;;;;7.88;82.39;97021.94;104988;1270;61374;-75
2022/02/17 00:26:15;;;;;;;3.40;2.10;;;;;;;7.87;82.22;97035.25;105176;1270;61401;-76
2022/02/17 00:28:41;;;;;;;3.90;2.00;;;;;;;7.86;82.28;97048.64;105066;1270;61349;-76
2022/02/17 00:31:08;;;;;;;2.20;1.90;;;;;;;7.84;82.31;97047.39;105206;1270;75265;-76
2022/02/17 00:33:38;;;;;;;3.80;2.70;;;;;;;7.81;82.67;97036.00;104956;1270;61181;-75
2022/02/17 00:36:05;;;;;;;3.30;1.90;;;;;;;7.76;82.60;97028.25;105161;1270;73421;-75
2022/02/17 00:38:32;;;;;;;2.70;2.10;;;;;;;7.70;82.71;97002.96;104943;1270;61491;-74
2022/02/17 00:40:59;;;;;;;2.50;2.00;;;;;;;7.64;83.01;96974.14;105304;1270;61275;-75
2022/02/17 00:43:25;;;;;;;2.20;2.00;;;;;;;7.60;83.12;96989.54;105192;1270;61252;-74
2022/02/17 00:45:52;;;;;;;2.10;1.50;;;;;;;7.59;83.69;96998.27;105167;1270;61955;-74
2022/02/17 00:48:18;;;;;;;2.10;1.60;;;;;;;7.63;84.36;96998.80;105150;1270;61376;-75
2022/02/17 00:50:45;;;;;;;1.60;1.50;;;;;;;7.72;84.72;97014.83;105201;1269;61374;-75
2022/02/17 00:53:11;;;;;;;1.50;1.40;;;;;;;7.82;84.72;97016.99;105136;1270;61663;-75
2022/02/17 00:55:38;;;;;;;1.70;1.50;;;;;;;7.89;84.54;97023.75;105115;1270;61328;-75
2022/02/17 00:58:05;;;;;;;2.20;2.00;;;;;;;7.96;84.53;97031.16;104956;1270;61378;-75
2022/02/17 01:00:31;;;;;;;2.40;1.80;;;;;;;8.01;84.48;97039.86;105163;1270;73406;-74
2022/02/17 01:02:58;;;;;;;2.10;1.90;;;;;;;8.06;84.46;97039.83;105143;1270;61243;-74
2022/02/17 01:05:26;;;;;;;2.00;1.80;;;;;;;8.08;84.54;97041.55;105176;1270;61259;-75
2022/02/17 01:07:52;;;;;;;2.90;2.40;;;;;;;8.09;84.41;97037.02;105149;1270;75105;-74
2022/02/17 01:10:19;;;;;;;3.20;2.60;;;;;;;8.09;84.41;97021.52;105161;1270;69392;-74
2022/02/17 01:12:45;;;;;;;2.30;2.10;;;;;;;8.09;84.82;97009.48;104924;1270;61384;-74
2022/02/17 01:15:12;;;;;;;2.60;2.20;;;;;;;8.11;84.80;96996.42;105186;1270;61343;-74
2022/02/17 01:17:38;;;;;;;2.90;2.40;;;;;;;8.13;84.80;96995.14;105134;1270;61358;-74
2022/02/17 01:20:06;;;;;;;2.40;2.20;;;;;;;8.17;85.02;96990.70;105179;1270;61299;-75
2022/02/17 01:22:32;;;;;;;3.30;2.10;;;;;;;8.21;84.86;96985.40;104958;1270;70446;-75
2022/02/17 01:24:59;;;;;;;2.80;1.90;;;;;;;8.24;85.05;96980.73;105178;1270;61300;-75
2022/02/17 01:27:25;;;;;;;2.50;2.30;;;;;;;8.28;84.95;96980.70;105129;1270;61256;-75
2022/02/17 01:29:52;;;;;;;2.20;1.90;;;;;;;8.31;84.97;96966.08;105175;1270;61273;-74
2022/02/17 01:32:19;;;;;;;3.50;2.00;;;;;;;8.34;84.86;96972.01;104956;1270;61252;-75
2022/02/17 01:34:46;;;;;;;2.10;1.90;;;;;;;8.37;84.90;96954.07;105039;1270;69450;-75
2022/02/17 01:37:12;;;;;;;2.50;2.20;;;;;;;8.40;84.90;96934.02;105138;1270;74244;-76
2022/02/17 01:39:39;;;;;;;2.10;1.90;;;;;;;8.43;84.90;96924.86;105145;1270;61397;-75
2022/02/17 01:42:09;;;;;;;2.30;2.10;;;;;;;8.46;84.83;96918.04;105013;1270;61426;-74
2022/02/17 01:44:36;;;;;;;2.50;2.30;;;;;;;8.48;84.78;96902.45;105123;1270;75152;-75
2022/02/17 01:47:10;;;;;;;2.20;2.00;;;;;;;8.48;84.77;96907.95;105172;1270;69252;-75
2022/02/17 01:49:38;;;;;;;2.60;2.10;;;;;;;8.47;84.77;96922.56;105176;1270;72823;-75
2022/02/17 01:52:05;;;;;;;3.20;2.00;;;;;;;8.45;84.72;96921.20;104940;1270;61343;-75
2022/02/17 01:54:32;;;;;;;2.80;2.60;;;;;;;8.44;84.82;96921.25;105161;1270;61868;-75
2022/02/17 01:57:03;;;;;;;3.00;2.30;;;;;;;8.42;84.88;96915.94;105162;1270;76093;-74
2022/02/17 01:59:30;;;;;;;5.10;2.90;;;;;;;8.42;85.00;96902.30;105132;1270;70447;-75
2022/02/17 02:01:57;;;;;;;3.70;2.20;;;;;;;8.42;85.10;96882.84;105191;1270;74227;-74
2022/02/17 02:04:23;;;;;;;2.80;2.40;;;;;;;8.45;85.31;96873.08;105165;1270;61263;-75
2022/02/17 02:06:50;;;;;;;4.20;2.40;;;;;;;8.47;85.28;96873.54;105215;1270;61345;-75
2022/02/17 02:09:17;;;;;;;2.80;1.70;;;;;;;8.50;85.50;96866.90;105202;1268;61267;-74
2022/02/17 02:11:45;;;;;;;2.30;1.90;;;;;;;8.56;85.42;96874.46;105163;1270;69336;-74
2022/02/17 02:14:17;;;;;;;3.60;2.00;;;;;;;8.60;87.25;96874.13;105140;1270;74652;-75
2022/02/17 02:16:45;;;;;;;1.80;1.70;;;;;;;8.60;87.95;96856.42;105153;1270;61242;-74
2022/02/17 02:19:12;;;;;;;2.50;2.30;;;;;;;8.54;88.96;96839.64;105226;1270;61359;-75
2022/02/17 02:21:39;;;;;;;2.80;2.10;;;;;;;8.50;90.17;96837.52;105147;1270;76452;-75
2022/02/17 02:24:06;;;;;;;2.20;2.10;;;;;;;8.51;90.30;96828.55;105174;1270;69194;-75
2022/02/17 02:26:32;;;;;;;2.20;2.00;;;;;;;8.52;90.64;96806.02;105167;1270;72291;-74
2022/02/17 02:28:59;;;;;;;2.90;1.80;;;;;;;8.53;90.55;96805.05;105028;1270;61266;-74
2022/02/17 02:31:26;;;;;;;2.40;2.20;;;;;;;8.51;91.01;96782.23;105235;1270;61327;-74
2022/02/17 02:33:53;;;;;;;3.10;2.80;;;;;;;8.48;91.99;96763.60;105080;1270;75255;-74
2022/02/17 02:36:19;;;;;;;3.30;2.70;;;;;;;8.45;92.98;96755.59;105236;1270;69076;-74
2022/02/17 02:38:46;;;;;;;2.80;2.30;;;;;;;8.40;93.88;96754.44;105121;1270;73451;-75
2022/02/17 02:41:12;;;;;;;3.00;2.80;;;;;;;8.33;95.17;96752.25;104968;1270;61330;-75
2022/02/17 02:43:39;;;;;;;3.00;2.70;;;;;;;8.26;96.21;96743.52;105235;1270;61241;-74
2022/02/17 02:46:07;;;;;;;3.60;3.10;;;;;;;8.19;96.50;96738.65;105150;1270;75207;-75
2022/02/17 02:48:34;;;;;;;3.20;2.50;;;;;;;8.12;97.71;96730.45;105079;1270;69174;-74
2022/02/17 02:51:01;;;;;;;3.20;2.90;;;;;;;8.05;98.56;96735.88;105248;1270;73297;-76
2022/02/17 02:53:29;;;;;;;4.50;2.70;;;;;;;7.98;99.27;96734.44;105585;1270;61385;-75
2022/02/17 02:55:56;;;;;;;4.30;3.10;;;;;;;7.91;99.95;96729.10;105157;1270;61319;-75
2022/02/17 02:58:23;;;;;;;3.60;3.20;;;;;;;7.84;100.00;96731.14;105322;1270;75283;-74
2022/02/17 03:00:49;;;;;;;3.30;2.90;;;;;;;7.78;100.00;96725.81;105167;1268;69111;-74
2022/02/17 03:03:18;;;;;;;3.50;2.90;;;;;;;7.74;100.00;96713.70;105169;1270;74413;-74
2022/02/17 03:05:46;;;;;;;3.10;2.60;;;;;;;7.69;100.00;96699.92;105109;1270;61386;-73
2022/02/17 03:08:13;;;;;;;4.20;2.50;;;;;;;7.68;100.00;96695.42;105186;1270;61305;-73
2022/02/17 03:10:40;;;;;;;2.60;2.40;;;;;;;7.68;100.00;96679.02;105172;1270;75375;-74
2022/02/17 03:13:07;;;;;;;3.20;2.70;;;;;;;7.68;100.00;96659.05;105178;1270;70391;-74
2022/02/17 03:15:33;;;;;;;3.10;2.70;;;;;;;7.68;100.00;96664.53;105196;1270;74165;-75
2022/02/17 03:18:01;;;;;;;3.20;2.90;;;;;;;7.67;100.00;96661.78;105188;1270;61338;-74
2022/02/17 03:20:28;;;;;;;2.80;2.60;;;;;;;7.66;100.00;96655.14;105212;1270;61352;-74
2022/02/17 03:22:54;;;;;;;3.30;2.60;;;;;;;7.65;100.00;96648.92;104972;1270;61367;-71
2022/02/17 03:25:21;;;;;;;3.20;2.70;;;;;;;7.64;100.00;96649.02;105173;1270;61292;-74
2022/02/17 03:27:48;;;;;;;5.10;3.20;;;;;;;7.63;100.00;96637.92;105151;1270;61251;-74
2022/02/17 03:30:15;;;;;;;4.70;3.10;;;;;;;7.63;100.00;96628.96;105155;1270;61334;-74
2022/02/17 03:32:42;;;;;;;4.00;2.80;;;;;;;7.64;100.00;96618.98;105391;1270;61345;-75
2022/02/17 03:35:09;;;;;;;2.90;2.70;;;;;;;7.64;100.00;96605.84;105100;1270;76332;-74
2022/02/17 03:37:36;;;;;;;3.30;3.00;;;;;;;7.65;100.00;96596.93;105188;1270;69249;-74
2022/02/17 03:40:04;;;;;;;2.60;2.40;;;;;;;7.68;100.00;96596.34;105155;1270;73415;-75
2022/02/17 03:42:30;;;;;;;2.70;2.10;;;;;;;7.71;100.00;96595.36;104935;1270;61398;-74
2022/02/17 03:44:57;;;;;;;2.80;2.60;;;;;;;7.74;100.00;96592.26;105203;1270;61282;-73
2022/02/17 03:47:24;;;;;;;3.60;2.10;;;;;;;7.78;100.00;96599.07;105187;1270;61375;-74
2022/02/17 03:49:50;;;;;;;3.60;2.10;;;;;;;7.83;100.00;96593.54;105173;1270;68259;-73
2022/02/17 03:52:17;;;;;;;2.30;2.10;;;;;;;7.87;100.00;96580.54;105188;1270;74209;-73
2022/02/17 03:54:44;;;;;;;2.30;1.90;;;;;;;7.92;100.00;96571.22;105154;1270;61274;-75
2022/02/17 03:57:11;;;;;;;1.60;1.50;;;;;;;7.98;100.00;96559.59;105210;1270;61279;-73
2022/02/17 03:59:37;;;;;;;1.50;1.10;;;;;;;8.04;100.00;96536.84;105163;1270;75287;-74
2022/02/17 04:02:04;;;;;;;1.50;1.00;;;;;;;8.15;100.00;96531.59;105176;1270;70187;-75
2022/02/17 04:04:30;;;;;;;2.20;0.80;;;;;;;8.26;100.00;96516.70;105164;1270;74219;-73
2022/02/17 04:06:57;;;;;;;1.40;1.30;;;;;;;8.36;100.00;96525.30;105135;1270;61437;-76
2022/02/17 04:09:25;;;;;;;2.20;1.50;;;;;;;8.47;100.00;96532.36;105056;1270;61493;-75
2022/02/17 04:11:51;;;;;;;1.70;0.80;;;;;;;8.52;100.00;96548.48;105131;1270;76339;-76
2022/02/17 04:14:18;;;;;;;1.80;1.20;;;;;;;8.57;100.00;96562.39;104954;1271;70435;-72
2022/02/17 04:16:45;;;;;;;1.70;1.00;;;;;;;8.60;100.00;96567.60;104917;1270;73238;-74
2022/02/17 04:19:12;;;;;;;1.20;1.10;;;;;;;8.64;100.00;96568.08;105150;1267;61332;-73
2022/02/17 04:21:39;;;;;;;1.20;0.70;;;;;;;8.70;100.00;96562.48;104947;1270;61354;-75
2022/02/17 04:24:06;;;;;;;1.80;0.90;;;;;;;8.77;100.00;96565.75;105065;1273;75048;-74
2022/02/17 04:26:33;;;;;;;1.30;1.00;;;;;;;8.83;100.00;96562.89;105225;1270;69413;-74
2022/02/17 04:28:59;;;;;;;1.10;0.80;;;;;;;8.86;100.00;96554.05;105037;1270;71473;-73
2022/02/17 04:31:27;;;;;;;1.40;0.80;;;;;;;8.89;100.00;96541.29;105179;1270;61253;-73
2022/02/17 04:33:54;;;;;;;1.80;1.00;;;;;;;8.93;100.00;96530.48;105272;1270;61190;-74
2022/02/17 04:36:22;;;;;;;2.10;0.80;;;;;;;8.97;100.00;96527.95;105190;1270;75431;-76
2022/02/17 04:38:48;;;;;;;1.30;0.90;;;;;;;9.03;100.00;96518.37;105159;1270;70305;-75
2022/02/17 04:44:00;;;;;;;2.40;1.20;;;;;;;9.15;100.00;96501.76;105188;1270;61385;-75
2022/02/17 04:46:27;;;;;;;1.60;1.30;;;;;;;9.18;100.00;96493.44;105207;1270;61700;-73
2022/02/17 04:48:53;;;;;;;1.50;1.30;;;;;;;9.22;100.00;96492.47;105163;1270;75155;-75
2022/02/17 04:51:20;;;;;;;1.40;0.70;;;;;;;9.26;100.00;96489.48;105190;1270;69049;-76
2022/02/17 04:53:46;;;;;;;2.30;0.80;;;;;;;9.32;99.94;96485.62;105144;1270;73148;-75
2022/02/17 04:56:13;;;;;;;3.10;0.90;;;;;;;9.38;99.88;96490.88;105207;1270;61268;-75
2022/02/17 04:58:40;;;;;;;1.40;0.90;;;;;;;9.39;99.58;96485.80;105155;1270;61211;-75
2022/02/17 05:01:07;;;;;;;2.30;1.30;;;;;;;9.41;99.42;96482.65;105190;1270;76265;-74
2022/02/17 05:03:34;;;;;;;1.70;0.90;;;;;;;9.42;99.23;96489.38;105159;1270;70579;-74
2022/02/17 05:06:02;;;;;;;1.40;0.90;;;;;;;9.45;99.02;96476.00;105163;1270;73440;-75
2022/02/17 05:08:32;;;;;;;1.40;0.90;;;;;;;9.47;98.82;96457.23;104660;1270;61474;-74
2022/02/17 05:10:58;;;;;;;0.60;0.60;;;;;;;9.47;98.71;96448.70;105201;1270;61256;-75
2022/02/17 05:13:25;;;;;;;1.10;0.90;;;;;;;9.51;98.76;96447.15;104980;1273;76278;-74
2022/02/17 05:15:52;;;;;;;0.90;0.90;;;;;;;9.55;98.59;96438.13;104961;1271;69243;-73
2022/02/17 05:18:18;;;;;;;2.70;1.30;;;;;;;9.55;98.61;96422.17;105141;1270;61286;-74
2022/02/17 05:20:45;;;;;;;2.10;1.40;;;;;;;9.54;98.36;96434.27;105177;1270;61449;-74
2022/02/17 05:23:12;;;;;;;2.00;1.50;;;;;;;9.57;98.37;96425.11;105203;1270;61230;-75
2022/02/17 05:25:38;;;;;;;3.40;1.10;;;;;;;9.61;98.27;96411.94;105224;1270;76408;-75
2022/02/17 05:28:08;;;;;;;2.10;1.20;;;;;;;9.67;98.29;96408.25;105148;1270;70093;-75
2022/02/17 05:30:40;;;;;;;2.70;1.20;;;;;;;9.76;98.10;96418.00;105171;1270;73260;-76
2022/02/17 05:33:12;;;;;;;1.60;1.00;;;;;;;9.88;97.93;96422.89;105087;1270;61383;-75
2022/02/17 05:35:40;;;;;;;1.80;0.70;;;;;;;10.01;97.80;96413.95;105282;1270;61861;-75
2022/02/17 05:38:07;;;;;;;1.70;0.80;;;;;;;10.08;97.42;96414.82;104822;1270;75336;-75
2022/02/17 05:40:35;;;;;;;2.10;1.20;;;;;;;10.16;97.04;96416.25;105259;1270;70306;-75
2022/02/17 05:43:03;;;;;;;1.80;0.80;;;;;;;10.23;96.68;96405.45;104983;1270;72700;-75
2022/02/17 05:45:30;;;;;;;2.80;1.00;;;;;;;10.28;96.21;96384.45;105178;1270;61211;-81
2022/02/17 05:47:57;;;;;;;3.50;1.80;;;;;;;10.34;96.02;96388.65;105322;1270;61370;-74
2022/02/17 05:50:24;;;;;;;1.50;1.00;;;;;;;10.38;95.86;96384.70;105053;1270;75151;-74
2022/02/17 05:52:51;;;;;;;2.40;1.10;;;;;;;10.40;95.51;96371.86;105261;1270;69419;-74
2022/02/17 05:55:18;;;;;;;3.40;1.50;;;;;;;10.41;95.30;96370.09;105249;1270;73271;-74
2022/02/17 05:57:45;;;;;;;2.30;1.60;;;;;;;10.42;95.36;96371.65;105364;1270;61230;-73
2022/02/17 06:00:13;;;;;;;2.70;1.50;;;;;;;10.41;95.36;96364.48;105233;1270;61560;-73
2022/02/17 06:02:41;;;;;;;2.00;1.60;;;;;;;10.39;95.43;96365.93;105259;1270;75398;-73
2022/02/17 06:05:09;;;;;;;2.80;1.50;;;;;;;10.35;95.47;96363.38;105320;1270;69355;-73
2022/02/17 06:07:37;;;;;;;1.90;1.50;;;;;;;10.34;95.41;96346.53;105158;1270;73897;-73
2022/02/17 06:10:05;;;;;;;2.00;1.10;;;;;;;10.34;95.73;96335.38;104950;1270;61441;-74
2022/02/17 06:12:32;;;;;;;1.70;1.00;;;;;;;10.33;95.93;96333.89;105247;1270;61346;-74
2022/02/17 06:14:59;;;;;;;0.80;0.80;;;;;;;10.30;96.19;96341.81;105007;1272;75560;-74
2022/02/17 06:17:25;;;;;;;1.30;1.20;;;;;;;10.27;96.51;96345.48;105200;1270;69247;-74
2022/02/17 06:19:52;;;;;;;2.00;1.20;;;;;;;10.23;96.84;96354.65;105178;1270;74112;-73
2022/02/17 06:22:18;;;;;;;1.90;1.30;;;;;;;10.17;97.38;96347.34;104968;1270;61171;-73
2022/02/17 06:24:47;;;;;;;3.30;1.70;;;;;;;10.11;98.00;96342.30;105206;1270;61268;-73
2022/02/17 06:27:13;;;;;;;2.40;1.50;;;;;;;10.04;99.22;96339.16;105188;1270;76477;-73
2022/02/17 06:29:40;;;;;;;2.20;1.70;;;;;;;9.95;99.87;96321.26;105166;1270;61339;-73
2022/02/17 06:32:07;;;;;;;1.40;1.10;;;;;;;9.86;99.95;96310.67;105134;1270;74622;-74
2022/02/17 06:34:34;;;;;;;1.90;1.10;;;;;;;9.80;100.00;96304.05;105135;1270;61249;-74
2022/02/17 06:37:01;;;;;;;3.50;1.80;;;;;;;9.78;100.00;96309.27;105159;1270;61228;-73
2022/02/17 06:39:27;;;;;;;2.70;1.90;;;;;;;9.79;100.00;96295.84;105143;1270;75115;-74
2022/02/17 06:41:54;;;;;;;4.00;2.20;;;;;;;9.81;99.98;96295.67;105106;1270;61253;-73
2022/02/17 06:44:21;;;;;;;3.90;2.20;;;;;;;9.82;99.83;96298.04;105135;1270;73086;-73
2022/02/17 06:46:47;;;;;;;3.20;2.30;;;;;;;9.82;99.64;96282.43;105106;1270;61288;-73
2022/02/17 06:49:14;;;;;;;4.10;2.20;;;;;;;9.82;99.67;96255.48;105123;1270;61370;-74
2022/02/17 06:51:41;;;;;;;4.50;2.40;;;;;;;9.82;99.68;96258.66;105147;1270;75131;-74
2022/02/17 06:54:07;;;;;;;7.40;4.30;;;;;;;9.81;99.42;96270.30;105157;1270;61312;-74
2022/02/17 06:56:34;;;;;;;5.50;3.40;;;;;;;9.81;99.49;96274.72;104979;1271;74583;-73
2022/02/17 06:59:01;;;;;;;4.10;2.40;;;;;;;9.82;99.36;96263.12;105197;1270;61303;-74
2022/02/17 07:01:27;;;;;;;3.70;2.50;;;;;;;9.84;99.27;96243.92;105164;1270;62107;-73
2022/02/17 07:03:54;;;;;;;4.80;2.80;;;;;;;9.90;99.19;96239.32;105147;1270;76500;-73
2022/02/17 07:06:23;;;;;;;5.40;2.70;;;;;;;10.04;99.00;96217.96;105176;1270;68615;-73
2022/02/17 07:08:51;;;;;;;2.90;2.30;;;;;;;10.25;98.72;96197.26;105181;1270;72853;-74
2022/02/17 07:11:17;;;;;;;4.90;2.60;;;;;;;10.48;98.11;96192.23;105185;1270;61268;-73
2022/02/17 07:13:44;;;;;;;3.00;2.00;;;;;;;10.63;97.50;96196.77;105193;1270;61895;-73
2022/02/17 07:16:10;;;;;;;2.40;1.70;;;;;;;10.69;97.09;96199.74;105165;1270;76267;-73
2022/02/17 07:18:37;;;;;;;3.70;2.00;;;;;;;10.74;96.66;96168.47;105165;1270;61253;-73
2022/02/17 07:21:05;;;;;;;2.90;1.50;;;;;;;10.84;95.74;96114.50;105145;1270;73476;-73
2022/02/17 07:23:32;;;;;;;5.90;2.20;;;;;;;10.95;94.80;96103.45;105111;1270;61384;-73
2022/02/17 07:25:58;;;;;;;2.00;1.30;;;;;;;11.06;94.07;96123.10;105176;1270;61344;-73
2022/02/17 07:28:26;;;;;;;1.40;1.20;;;;;;;11.18;93.43;96117.52;105168;1270;76299;-73
2022/02/17 07:30:54;;;;;;;2.30;1.60;;;;;;;11.29;92.74;96125.11;105135;1270;70409;-73
2022/02/17 07:33:21;;;;;;;2.80;1.40;;;;;;;11.38;91.69;96129.14;105153;1270;73288;-73
2022/02/17 07:35:47;;;;;;;6.30;1.50;;;;;;;11.49;91.33;96107.16;105097;1270;61414;-73
2022/02/17 07:38:14;;;;;;;5.80;2.10;;;;;;;11.54;90.75;96105.89;105165;1270;62113;-73
2022/02/17 07:40:41;;;;;;;2.10;1.50;;;;;;;11.54;90.67;96100.81;105165;1270;75405;-73
2022/02/17 07:43:09;;;;;;;3.50;1.40;;;;;;;11.56;89.87;96100.88;105156;1270;69184;-74
2022/02/17 07:45:37;;;;;;;6.00;1.50;;;;;;;11.57;89.59;96301.59;105154;1270;72826;-73
2022/02/17 07:48:04;;;;;;;5.40;1.50;;;;;;;10.17;92.32;96418.53;105248;1270;61295;-75
2022/02/17 07:50:33;;;;;;;7.40;1.70;;;;;;;8.41;96.13;96490.11;104955;1270;61350;-75
2022/02/17 07:53:01;;;;;;;7.00;1.60;;;;;;;7.13;99.97;96523.52;105377;1270;75226;-72
2022/02/17 07:55:28;;;;;;;5.80;1.40;;;;;;;6.30;100.00;96528.89;105143;1270;70083;-74
2022/02/17 07:58:00;;;;;;;2.80;1.40;;;;;;;5.65;100.00;96540.28;105159;1270;73397;-74
2022/02/17 08:00:27;;;;;;;2.30;1.10;;;;;;;5.27;100.00;96557.81;105157;1270;61238;-74
2022/02/17 08:02:53;;;;;;;3.10;1.40;;;;;;;5.05;100.00;96564.86;104910;1271;61175;-74
2022/02/17 08:05:20;;;;;;;3.70;1.40;;;;;;;4.93;100.00;96600.19;105154;1270;75185;-75
2022/02/17 08:07:47;;;;;;;4.60;1.50;;;;;;;4.88;100.00;96609.92;104926;1272;61353;-76
2022/02/17 08:10:13;;;;;;;4.70;2.00;;;;;;;4.82;100.00;96625.41;105119;1270;61276;-74
2022/02/17 08:12:43;;;;;;;3.30;1.70;;;;;;;4.78;100.00;96650.71;105147;1270;61384;-75
2022/02/17 08:15:11;;;;;;;3.70;1.60;;;;;;;4.73;100.00;96677.13;105222;1270;61158;-73
2022/02/17 08:17:37;;;;;;;4.40;2.00;;;;;;;4.70;100.00;96705.55;105046;1271;75676;-74
2022/02/17 08:20:05;;;;;;;4.80;2.50;;;;;;;4.69;100.00;96711.96;105183;1270;69325;-74
2022/02/17 08:22:32;;;;;;;3.90;2.00;;;;;;;4.67;100.00;96723.73;105330;1270;72831;-74
2022/02/17 08:24:58;;;;;;;3.70;2.30;;;;;;;4.65;100.00;96719.60;105204;1270;61211;-73
2022/02/17 08:27:25;;;;;;;2.30;1.30;;;;;;;4.66;100.00;96712.89;105185;1270;62084;-74
2022/02/17 08:29:51;;;;;;;3.60;1.90;;;;;;;4.67;100.00;96711.77;105160;1270;61222;-74
2022/02/17 08:32:18;;;;;;;3.70;1.70;;;;;;;4.68;100.00;96730.33;105175;1270;61281;-73
2022/02/17 08:34:45;;;;;;;3.60;2.10;;;;;;;4.71;100.00;96739.20;104991;1271;73620;-73
2022/02/17 08:37:12;;;;;;;3.30;1.70;;;;;;;4.75;100.00;96734.32;105183;1270;61269;-75
2022/02/17 08:39:39;;;;;;;4.40;2.20;;;;;;;4.79;100.00;96734.69;105191;1270;62875;-76
2022/02/17 08:42:05;;;;;;;1.70;1.10;;;;;;;4.83;100.00;96726.13;105043;1270;61306;-75
2022/02/17 08:44:32;;;;;;;2.40;1.40;;;;;;;4.87;100.00;96689.20;105193;1270;70305;-75
2022/02/17 08:46:59;;;;;;;1.70;0.80;;;;;;;4.98;100.00;96643.61;105192;1270;74581;-75
2022/02/17 08:49:25;;;;;;;1.60;0.60;;;;;;;5.21;100.00;96620.05;105162;1270;61257;-75
2022/02/17 08:51:52;;;;;;;2.10;1.40;;;;;;;5.38;100.00;96602.13;104993;1271;62057;-74
2022/02/17 08:54:18;;;;;;;2.70;1.60;;;;;;;5.52;100.00;96612.05;105199;1270;75340;-75
2022/02/17 08:56:45;;;;;;;4.40;1.60;;;;;;;5.57;100.00;96637.98;105224;1270;69659;-75
2022/02/17 08:59:12;;;;;;;5.20;2.50;;;;;;;5.60;100.00;96637.55;105246;1270;74163;-75
2022/02/17 09:01:38;;;;;;;5.20;3.30;;;;;;;5.66;100.00;96624.77;105166;1270;61265;-76
2022/02/17 09:04:05;;;;;;;3.90;2.20;;;;;;;5.68;100.00;96617.28;105186;1270;61286;-75
2022/02/17 09:06:32;;;;;;;2.70;2.30;;;;;;;5.72;100.00;96612.61;105165;1270;75252;-74
2022/02/17 09:08:59;;;;;;;9.90;6.00;;;;;;;5.72;100.00;96625.10;104932;1271;69862;-74
2022/02/17 09:11:26;;;;;;;13.70;7.10;;;;;;;5.73;100.00;96644.16;105233;1270;73416;-75
2022/02/17 09:13:52;;;;;;;10.70;6.60;;;;;;;5.75;100.00;96659.24;105213;1270;61322;-76
2022/02/17 09:16:19;;;;;;;14.40;9.20;;;;;;;5.74;100.00;96681.84;105260;1270;61127;-76
2022/02/17 09:18:45;;;;;;;14.10;8.50;;;;;;;5.70;100.00;96696.96;105212;1270;74911;-76
2022/02/17 09:21:14;;;;;;;12.10;7.10;;;;;;;5.67;100.00;96725.20;105175;1270;61355;-75
2022/02/17 09:23:40;;;;;;;14.40;8.70;;;;;;;5.70;100.00;96727.61;105190;1270;73155;-76
2022/02/17 09:26:08;;;;;;;16.20;8.50;;;;;;;5.80;100.00;96718.36;105197;1271;61265;-75
2022/02/17 09:28:35;;;;;;;9.80;6.30;;;;;;;5.85;100.00;96689.69;105258;1270;61282;-77
2022/02/17 09:31:02;;;;;;;9.50;5.90;;;;;;;5.90;100.00;96704.77;105218;1271;75634;-75
2022/02/17 09:33:30;;;;;;;9.10;5.60;;;;;;;5.96;100.00;96702.94;105260;1270;69298;-75
2022/02/17 09:35:58;;;;;;;7.30;5.10;;;;;;;5.98;100.00;96704.38;105335;1270;73526;-76
2022/02/17 09:38:25;;;;;;;8.30;5.60;;;;;;;5.99;100.00;96695.95;104939;1270;61292;-76
2022/02/17 09:40:52;;;;;;;8.90;5.90;;;;;;;5.99;100.00;96693.30;104900;1271;61800;-75
2022/02/17 09:43:23;;;;;;;9.00;5.40;;;;;;;6.04;100.00;96670.90;105230;1271;74820;-75
2022/02/17 09:45:50;;;;;;;10.70;6.70;;;;;;;6.11;100.00;96667.56;105276;1270;69359;-76
2022/02/17 09:48:17;;;;;;;9.40;6.10;;;;;;;6.23;100.00;96670.13;105291;1270;73242;-76
2022/02/17 09:50:44;;;;;;;11.50;6.70;;;;;;;6.35;100.00;96662.05;105327;1270;61372;-76
2022/02/17 09:53:12;;;;;;;9.50;7.00;;;;;;;6.46;100.00;96653.61;105344;1270;62065;-76
2022/02/17 09:55:40;;;;;;;8.70;5.60;;;;;;;6.59;100.00;96650.58;105417;1271;75244;-75
2022/02/17 09:58:07;;;;;;;10.10;6.40;;;;;;;6.70;100.00;96659.27;105803;1271;68416;-76
2022/02/17 10:00:34;;;;;;;11.60;5.70;;;;;;;6.89;100.00;96662.71;105723;1270;73359;-76
2022/02/17 10:03:38;;;;;;;10.10;6.20;;;;;;;7.06;100.00;96657.98;106001;1270;61171;-76
2022/02/17 10:06:10;;;;;;;11.20;6.60;;;;;;;7.22;100.00;96646.67;106489;1277;61160;-76
2022/02/17 10:08:37;;;;;;;12.00;7.30;;;;;;;7.37;100.00;96650.46;108074;1277;74928;-76
2022/02/17 10:11:05;;;;;;;10.80;7.00;;;;;;;7.48;100.00;96657.17;108138;1277;69396;-76
2022/02/17 10:13:33;;;;;;;11.10;6.70;;;;;;;7.60;100.00;96657.68;108118;1277;73421;-76
2022/02/17 10:16:01;;;;;;;9.90;5.80;;;;;;;7.69;100.00;96653.30;106095;1277;61434;-76
2022/02/17 10:18:30;;;;;;;11.80;6.20;;;;;;;7.73;100.00;96642.01;104729;1277;61436;-78
2022/02/17 10:21:02;;;;;;;10.10;6.20;;;;;;;7.75;100.00;96637.91;104607;1277;75442;-77
2022/02/17 10:23:32;;;;;;;10.00;5.90;;;;;;;7.80;100.00;96630.21;104670;1277;69231;-75
2022/02/17 10:26:00;;;;;;;7.80;4.40;;;;;;;7.84;100.00;96638.98;104767;1277;72832;-76
2022/02/17 10:28:27;;;;;;;8.40;4.40;;;;;;;7.82;100.00;96633.50;104636;1277;61268;-78
2022/02/17 10:30:56;;;;;;;6.40;4.20;;;;;;;7.83;100.00;96625.72;104681;1277;61973;-77
2022/02/17 10:33:23;;;;;;;7.10;3.90;;;;;;;7.84;100.00;96635.82;104795;1277;75159;-76
2022/02/17 10:35:54;;;;;;;7.40;3.70;;;;;;;7.81;100.00;96636.27;104674;1277;69153;-75
2022/02/17 10:38:22;;;;;;;6.20;2.90;;;;;;;7.78;100.00;96645.64;104717;1277;71502;-76
2022/02/17 10:40:54;;;;;;;3.50;2.50;;;;;;;7.76;100.00;96636.98;104777;1272;61363;-78
2022/02/17 10:43:26;;;;;;;7.60;3.80;;;;;;;7.76;100.00;96637.63;105077;1272;62165;-76
2022/02/17 10:45:52;;;;;;;9.00;4.20;;;;;;;7.75;100.00;96644.64;105234;1270;75497;-76
2022/02/17 10:48:24;;;;;;;6.20;3.80;;;;;;;7.66;100.00;96635.74;105225;1270;69272;-77
2022/02/17 10:51:11;;;;;;;4.30;2.40;;;;;;;7.57;100.00;96644.59;105309;1270;74473;-76
2022/02/17 10:53:57;;;;;;;6.10;3.80;;;;;;;7.51;100.00;96651.42;104992;1271;61416;-77
2022/02/17 10:56:29;;;;;;;5.70;3.70;;;;;;;7.54;100.00;96648.71;105302;1270;61888;-76
2022/02/17 10:59:00;;;;;;;3.60;2.80;;;;;;;7.61;100.00;96648.23;105168;1271;75094;-75
2022/02/17 11:01:29;;;;;;;5.10;3.00;;;;;;;7.74;100.00;96637.12;104984;1274;68575;-79
2022/02/17 11:03:55;;;;;;;3.00;2.50;;;;;;;7.92;100.00;96642.63;105329;1271;74449;-77
2022/02/17 11:06:22;;;;;;;5.00;3.10;;;;;;;8.06;100.00;96650.38;105261;1270;61263;-78
2022/02/17 11:08:51;;;;;;;4.60;2.90;;;;;;;8.15;100.00;96637.27;105062;1271;61944;-75
2022/02/17 11:11:21;;;;;;;5.20;3.30;;;;;;;8.23;100.00;96631.23;105350;1271;76168;-77
2022/02/17 11:13:51;;;;;;;5.90;3.90;;;;;;;8.29;100.00;96625.19;105196;1271;69249;-75
2022/02/17 11:16:24;;;;;;;6.40;4.00;;;;;;;8.36;100.00;96623.67;104935;1272;74064;-76
2022/02/17 11:18:55;;;;;;;8.30;4.90;;;;;;;8.45;100.00;96617.00;105385;1270;61144;-76
2022/02/17 11:21:22;;;;;;;7.10;4.70;;;;;;;8.64;100.00;96628.92;105194;1271;61995;-76
2022/02/17 11:23:48;;;;;;;6.00;4.10;;;;;;;8.83;100.00;96624.45;105137;1271;76158;-75
2022/02/17 11:26:28;;;;;;;6.50;4.10;;;;;;;8.96;100.00;96613.61;105209;1271;69775;-78
2022/02/17 11:28:56;;;;;;;4.80;3.30;;;;;;;9.02;100.00;96615.46;105147;1271;73249;-75
2022/02/17 11:31:23;;;;;;;5.40;3.60;;;;;;;9.04;100.00;96621.00;105240;1271;61324;-76